Time;durP1;ratioP1;P1;durP2;ratioP2;P2;SDS_P1;SDS_P2;PMS_P1;PMS_P2;Temp;Humidity;BMP_temperature;BMP_pressure;BME280_temperature;BME280_humidity;BME280_pressure;Samples;Min_cycle;Max_cycle;Signal;HPM_P1;HPM_P2
2021/10/03 00:01:57;;;;;;;3.30;3.00;;;16.50;99.90;;;;;;4995236;28;20425;-69
2021/10/03 00:04:28;;;;;;;2.40;2.07;;;16.60;99.90;;;;;;4977788;28;20422;-69
2021/10/03 00:06:55;;;;;;;3.27;2.70;;;16.60;99.90;;;;;;4995088;28;20419;-69
2021/10/03 00:09:24;;;;;;;2.50;2.30;;;16.60;99.90;;;;;;4994933;28;20435;-69
2021/10/03 00:11:50;;;;;;;3.40;3.10;;;16.70;99.90;;;;;;4995275;28;20429;-69
2021/10/03 00:14:18;;;;;;;2.37;2.17;;;16.70;99.90;;;;;;5011727;28;20501;-69
2021/10/03 00:16:45;;;;;;;3.80;3.47;;;16.70;99.90;;;;;;5013236;28;20385;-70
2021/10/03 00:19:12;;;;;;;3.10;2.80;;;16.70;99.90;;;;;;4994955;28;20446;-70
2021/10/03 00:21:38;;;;;;;3.20;2.63;;;16.70;99.90;;;;;;4995108;28;20403;-69
2021/10/03 00:24:06;;;;;;;3.03;2.73;;;16.60;99.90;;;;;;4994976;28;20945;-70
2021/10/03 00:26:35;;;;;;;2.73;2.53;;;16.60;99.90;;;;;;4994618;28;20174;-70
2021/10/03 00:29:01;;;;;;;3.93;2.83;;;16.60;99.90;;;;;;5011824;28;20818;-69
2021/10/03 00:31:26;;;;;;;3.03;2.77;;;16.60;99.90;;;;;;5014399;28;20373;-69
2021/10/03 00:33:52;;;;;;;2.50;2.30;;;16.60;99.90;;;;;;5014645;28;20394;-70
2021/10/03 00:36:18;;;;;;;3.60;2.70;;;16.60;99.90;;;;;;5014376;28;20173;-69
2021/10/03 00:38:44;;;;;;;3.20;2.57;;;16.60;99.90;;;;;;5013667;28;20944;-69
2021/10/03 00:41:11;;;;;;;2.20;2.10;;;16.60;99.90;;;;;;5013911;28;20245;-69
2021/10/03 00:43:37;;;;;;;2.67;2.47;;;16.60;99.90;;;;;;4994579;28;20517;-70
2021/10/03 00:46:02;;;;;;;2.53;2.33;;;16.60;99.90;;;;;;4994401;28;20437;-70
2021/10/03 00:48:28;;;;;;;2.73;2.37;;;16.60;99.90;;;;;;5003623;28;20396;-69
2021/10/03 00:50:54;;;;;;;2.60;2.40;;;16.60;99.90;;;;;;5031622;28;20764;-69
2021/10/03 00:53:19;;;;;;;2.60;2.03;;;16.60;99.90;;;;;;5031731;28;20193;-70
2021/10/03 00:55:45;;;;;;;2.40;2.20;;;16.60;99.90;;;;;;5009950;28;20178;-69
2021/10/03 00:58:11;;;;;;;2.40;2.20;;;16.60;99.90;;;;;;5013802;28;20570;-69
2021/10/03 01:00:39;;;;;;;3.10;2.50;;;16.60;99.90;;;;;;5012564;28;20199;-69
2021/10/03 01:03:06;;;;;;;2.57;2.37;;;16.60;99.90;;;;;;4996106;28;20412;-70
2021/10/03 01:05:33;;;;;;;3.03;2.80;;;16.50;99.90;;;;;;4977060;28;20474;-69
2021/10/03 01:07:59;;;;;;;2.43;2.27;;;16.50;99.90;;;;;;4976547;28;20422;-70
2021/10/03 01:10:28;;;;;;;2.63;2.17;;;16.50;99.90;;;;;;4994577;28;20509;-70
2021/10/03 01:13:03;;;;;;;2.03;1.90;;;16.50;99.90;;;;;;4976854;28;20445;-70
2021/10/03 01:15:31;;;;;;;2.70;2.27;;;16.50;99.90;;;;;;4994194;28;20485;-69
2021/10/03 01:17:57;;;;;;;3.03;2.37;;;16.50;99.90;;;;;;5002676;28;20400;-69
2021/10/03 01:20:24;;;;;;;2.67;2.37;;;16.50;99.90;;;;;;4997574;28;20944;-69
2021/10/03 01:22:51;;;;;;;2.40;2.27;;;16.60;99.90;;;;;;5012318;28;20484;-69
2021/10/03 01:25:19;;;;;;;4.80;3.47;;;16.60;99.90;;;;;;5013843;28;20386;-69
2021/10/03 01:27:44;;;;;;;2.43;2.23;;;16.60;99.90;;;;;;5011877;28;20430;-69
2021/10/03 01:30:17;;;;;;;3.20;2.50;;;16.50;99.90;;;;;;5013388;28;20436;-70
2021/10/03 01:32:44;;;;;;;3.17;2.30;;;16.50;99.90;;;;;;5013321;28;20532;-70
2021/10/03 01:35:10;;;;;;;2.13;2.00;;;16.50;99.90;;;;;;5013273;28;20834;-69
2021/10/03 01:37:37;;;;;;;7.03;2.67;;;16.50;99.90;;;;;;4994532;28;20400;-69
2021/10/03 01:40:06;;;;;;;2.73;2.33;;;16.50;99.90;;;;;;4994701;28;20474;-70
2021/10/03 01:42:32;;;;;;;2.50;2.30;;;16.50;99.90;;;;;;4993967;28;20386;-69
2021/10/03 01:44:58;;;;;;;2.80;2.60;;;16.50;99.90;;;;;;4994497;28;20895;-68
2021/10/03 01:47:24;;;;;;;2.50;2.30;;;16.40;99.90;;;;;;5011801;28;20964;-69
2021/10/03 01:49:49;;;;;;;1.80;1.70;;;16.40;99.90;;;;;;5013300;28;20201;-70
2021/10/03 01:52:16;;;;;;;2.80;2.60;;;16.40;99.90;;;;;;5013270;28;20459;-69
2021/10/03 01:54:42;;;;;;;2.27;1.93;;;16.40;99.90;;;;;;5012951;28;20600;-70
2021/10/03 01:57:08;;;;;;;4.10;2.83;;;16.30;99.90;;;;;;5012987;28;20406;-69
2021/10/03 01:59:34;;;;;;;2.50;2.20;;;16.20;99.90;;;;;;5013816;28;20974;-70
2021/10/03 02:02:00;;;;;;;2.60;2.30;;;16.20;99.90;;;;;;5013528;28;20179;-70
2021/10/03 02:04:27;;;;;;;2.93;2.63;;;16.20;99.90;;;;;;5012238;28;20411;-70
2021/10/03 02:06:55;;;;;;;2.47;2.23;;;16.10;99.90;;;;;;5012803;28;20417;-70
2021/10/03 02:09:24;;;;;;;3.00;2.77;;;16.10;99.90;;;;;;5011362;28;20420;-69
2021/10/03 02:11:52;;;;;;;2.33;2.17;;;16.00;99.90;;;;;;5013375;28;20782;-69
2021/10/03 02:14:19;;;;;;;2.37;2.17;;;16.00;99.90;;;;;;5011920;28;20429;-69
2021/10/03 02:16:46;;;;;;;2.30;2.20;;;16.00;99.90;;;;;;5012247;28;20964;-69
2021/10/03 02:19:12;;;;;;;3.20;2.10;;;15.90;99.90;;;;;;4993854;28;20419;-69
2021/10/03 02:21:39;;;;;;;2.00;1.80;;;15.90;99.90;;;;;;4997312;28;20505;-69
2021/10/03 02:24:11;;;;;;;2.10;1.87;;;15.90;99.90;;;;;;4997176;28;20401;-69
2021/10/03 02:26:36;;;;;;;2.57;2.03;;;15.90;99.90;;;;;;4979489;28;20979;-69
2021/10/03 02:29:02;;;;;;;2.80;2.60;;;15.90;99.90;;;;;;4997086;28;20461;-69
2021/10/03 02:31:27;;;;;;;2.07;1.97;;;15.90;99.90;;;;;;4997099;28;20183;-70
2021/10/03 02:33:53;;;;;;;2.50;2.23;;;15.90;99.90;;;;;;4979626;28;20180;-70
2021/10/03 02:36:22;;;;;;;2.33;2.17;;;15.90;99.90;;;;;;4997003;28;20176;-69
2021/10/03 02:38:49;;;;;;;2.13;1.93;;;15.90;99.90;;;;;;5005189;28;20960;-69
2021/10/03 02:41:16;;;;;;;1.97;1.87;;;15.90;99.90;;;;;;5016518;28;20391;-69
2021/10/03 02:43:45;;;;;;;1.90;1.80;;;15.80;99.90;;;;;;5014664;28;20488;-69
2021/10/03 02:46:11;;;;;;;1.63;1.53;;;15.80;99.90;;;;;;5016438;28;20496;-70
2021/10/03 02:48:38;;;;;;;2.70;2.50;;;15.80;99.90;;;;;;5015671;28;20512;-68
2021/10/03 02:51:04;;;;;;;3.17;2.00;;;15.80;99.90;;;;;;5014820;28;20448;-68
2021/10/03 02:53:36;;;;;;;3.23;2.63;;;15.80;99.90;;;;;;5016181;28;20930;-69
2021/10/03 02:56:02;;;;;;;2.13;2.00;;;15.70;99.90;;;;;;5016486;28;20408;-71
2021/10/03 02:58:29;;;;;;;2.50;2.27;;;15.70;99.90;;;;;;5015606;28;20414;-69
2021/10/03 03:00:55;;;;;;;2.40;2.07;;;15.70;99.90;;;;;;5016120;28;20225;-70
2021/10/03 03:03:21;;;;;;;1.93;1.83;;;15.70;99.90;;;;;;5015814;28;20730;-70
2021/10/03 03:05:48;;;;;;;3.23;2.70;;;15.70;99.90;;;;;;5016196;28;20463;-69
2021/10/03 03:08:14;;;;;;;1.93;1.83;;;15.70;99.90;;;;;;5015776;28;20178;-69
2021/10/03 03:10:39;;;;;;;3.30;2.57;;;15.70;99.90;;;;;;5015987;28;20441;-70
2021/10/03 03:13:05;;;;;;;2.73;2.50;;;15.70;99.90;;;;;;5013175;28;20206;-70
2021/10/03 03:15:31;;;;;;;2.10;2.00;;;15.60;99.90;;;;;;4978686;28;20193;-70
2021/10/03 03:17:57;;;;;;;2.83;2.60;;;15.60;99.90;;;;;;4996129;28;20182;-69
2021/10/03 03:20:23;;;;;;;2.77;2.57;;;15.60;99.90;;;;;;5015594;28;20429;-71
2021/10/03 03:22:49;;;;;;;2.30;2.10;;;15.50;99.90;;;;;;5015761;28;20425;-69
2021/10/03 03:25:15;;;;;;;2.07;1.97;;;15.50;99.90;;;;;;5015747;28;20467;-69
2021/10/03 03:27:42;;;;;;;2.60;2.40;;;15.50;99.90;;;;;;5015398;28;20454;-69
2021/10/03 03:30:09;;;;;;;2.80;2.53;;;15.50;99.90;;;;;;5015470;28;20434;-70
2021/10/03 03:32:35;;;;;;;2.90;2.60;;;15.40;99.90;;;;;;5012028;28;20439;-70
2021/10/03 03:35:01;;;;;;;2.93;2.40;;;15.40;99.90;;;;;;4995964;28;20419;-70
2021/10/03 03:37:27;;;;;;;2.27;2.10;;;15.40;99.90;;;;;;4995536;28;20177;-70
2021/10/03 03:39:52;;;;;;;2.93;2.73;;;15.40;99.90;;;;;;4995744;28;20219;-69
2021/10/03 03:42:18;;;;;;;2.20;1.83;;;15.40;99.90;;;;;;4995708;28;20468;-70
2021/10/03 03:44:44;;;;;;;1.93;1.83;;;15.40;99.90;;;;;;4995721;28;20230;-71
2021/10/03 03:47:09;;;;;;;2.23;2.10;;;15.40;99.90;;;;;;4979319;28;20646;-70
2021/10/03 03:49:35;;;;;;;1.80;1.70;;;15.50;99.90;;;;;;5015292;28;20285;-71
2021/10/03 03:52:01;;;;;;;4.00;2.47;;;15.50;99.90;;;;;;5013986;28;20195;-69
2021/10/03 03:54:27;;;;;;;2.83;2.57;;;15.50;99.90;;;;;;5015318;28;20405;-70
2021/10/03 03:56:53;;;;;;;2.37;2.13;;;15.50;99.90;;;;;;5014738;28;20496;-70
2021/10/03 03:59:18;;;;;;;2.40;2.30;;;15.50;99.90;;;;;;5015033;28;20273;-70
2021/10/03 04:01:44;;;;;;;6.47;2.57;;;15.50;99.90;;;;;;5013074;28;20544;-70
2021/10/03 04:04:10;;;;;;;2.13;2.03;;;15.60;99.90;;;;;;5010971;28;20182;-70
2021/10/03 04:06:36;;;;;;;2.13;2.03;;;15.60;99.90;;;;;;5013444;28;20171;-70
2021/10/03 04:09:02;;;;;;;2.50;2.30;;;15.70;99.90;;;;;;5014878;28;20415;-69
2021/10/03 04:11:28;;;;;;;2.20;2.10;;;15.70;99.90;;;;;;5014694;28;20175;-69
2021/10/03 04:13:53;;;;;;;3.20;2.80;;;15.70;99.90;;;;;;5014694;28;20795;-69
2021/10/03 04:16:19;;;;;;;2.30;2.10;;;15.70;99.90;;;;;;5014820;28;20175;-70
2021/10/03 04:18:45;;;;;;;2.37;2.17;;;15.70;99.90;;;;;;4995325;28;20202;-69
2021/10/03 04:21:10;;;;;;;2.47;1.87;;;15.60;99.90;;;;;;4995137;28;20172;-69
2021/10/03 04:23:36;;;;;;;2.40;2.13;;;15.60;99.90;;;;;;4995089;28;20526;-68
2021/10/03 04:26:02;;;;;;;1.50;1.40;;;15.60;99.90;;;;;;4977494;28;20176;-69
2021/10/03 04:28:28;;;;;;;2.27;2.13;;;15.60;99.90;;;;;;4994447;28;20421;-69
2021/10/03 04:30:54;;;;;;;2.40;2.20;;;15.60;99.90;;;;;;4996463;28;20901;-68
2021/10/03 04:33:19;;;;;;;2.57;2.33;;;15.50;99.90;;;;;;5010308;28;20206;-70
2021/10/03 04:35:45;;;;;;;2.50;2.30;;;15.50;99.90;;;;;;5014081;28;20163;-70
2021/10/03 04:38:10;;;;;;;1.90;1.53;;;15.50;99.90;;;;;;5013909;28;20202;-69
2021/10/03 04:40:36;;;;;;;2.80;2.50;;;15.50;99.90;;;;;;5014060;28;20205;-69
2021/10/03 04:43:03;;;;;;;2.10;2.00;;;15.50;99.90;;;;;;5013588;28;20642;-69
2021/10/03 04:45:28;;;;;;;2.17;2.07;;;15.50;99.90;;;;;;5012959;28;20237;-69
2021/10/03 04:47:54;;;;;;;3.07;2.23;;;15.50;99.90;;;;;;4994181;28;20925;-69
2021/10/03 04:50:20;;;;;;;2.23;2.03;;;15.50;99.90;;;;;;4994577;28;20670;-69
2021/10/03 04:52:46;;;;;;;2.80;2.60;;;15.50;99.90;;;;;;4994497;28;20207;-70
2021/10/03 04:55:12;;;;;;;2.00;1.90;;;15.50;99.90;;;;;;4986234;28;20190;-70
2021/10/03 04:57:38;;;;;;;1.80;1.70;;;15.50;99.90;;;;;;5013974;28;20589;-70
2021/10/03 05:00:07;;;;;;;2.53;2.33;;;15.60;99.90;;;;;;5005072;28;20799;-70
2021/10/03 05:02:32;;;;;;;1.70;1.60;;;15.60;99.90;;;;;;4995348;28;20459;-69
2021/10/03 05:04:58;;;;;;;2.37;2.17;;;15.60;99.90;;;;;;5010968;28;20396;-69
2021/10/03 05:07:24;;;;;;;2.40;2.20;;;15.60;99.90;;;;;;5012195;28;20190;-70
2021/10/03 05:09:50;;;;;;;2.43;2.23;;;15.70;99.90;;;;;;5013757;28;20190;-69
2021/10/03 05:12:16;;;;;;;2.60;1.70;;;15.70;99.90;;;;;;5013777;28;20446;-70
2021/10/03 05:14:42;;;;;;;1.93;1.83;;;15.80;99.90;;;;;;5006196;28;20820;-70
2021/10/03 05:17:08;;;;;;;1.60;1.50;;;15.90;99.90;;;;;;4993843;28;20389;-70
2021/10/03 05:19:33;;;;;;;2.20;2.07;;;15.90;99.90;;;;;;4994051;28;20187;-71
2021/10/03 05:21:59;;;;;;;1.57;1.50;;;15.90;99.90;;;;;;4994219;28;20175;-68
2021/10/03 05:24:25;;;;;;;2.90;1.87;;;16.00;99.90;;;;;;4976590;28;20182;-69
2021/10/03 05:26:50;;;;;;;1.93;1.83;;;16.00;99.90;;;;;;5008960;28;20198;-70
2021/10/03 05:29:17;;;;;;;2.40;2.03;;;16.10;99.90;;;;;;5012229;28;20200;-69
2021/10/03 05:31:43;;;;;;;1.87;1.77;;;16.20;99.90;;;;;;5013669;28;20177;-71
2021/10/03 05:34:08;;;;;;;1.60;1.50;;;16.20;99.90;;;;;;5012313;28;20417;-69
2021/10/03 05:36:34;;;;;;;2.13;2.00;;;16.30;99.90;;;;;;5011804;28;20400;-69
2021/10/03 05:39:00;;;;;;;2.00;1.80;;;16.30;99.90;;;;;;5013524;28;20186;-70
2021/10/03 05:41:27;;;;;;;2.47;2.27;;;16.30;99.90;;;;;;5013329;28;20257;-71
2021/10/03 05:43:53;;;;;;;2.33;2.13;;;16.30;99.90;;;;;;5012298;28;20649;-70
2021/10/03 05:46:19;;;;;;;1.70;1.60;;;16.40;99.90;;;;;;5013583;28;20385;-70
2021/10/03 05:48:45;;;;;;;2.27;2.07;;;16.40;99.90;;;;;;5011816;28;20972;-70
2021/10/03 05:51:11;;;;;;;3.90;1.87;;;16.50;99.90;;;;;;4995870;28;20537;-70
2021/10/03 05:53:37;;;;;;;2.20;1.90;;;16.50;99.90;;;;;;5000788;28;20203;-70
2021/10/03 05:56:03;;;;;;;1.50;1.40;;;16.50;99.90;;;;;;5012052;28;20439;-70
2021/10/03 05:58:29;;;;;;;2.30;2.10;;;16.60;99.90;;;;;;5016756;28;20432;-70
2021/10/03 06:00:55;;;;;;;1.70;1.60;;;16.60;99.90;;;;;;5012572;28;20742;-70
2021/10/03 06:03:21;;;;;;;1.60;1.50;;;16.70;99.90;;;;;;4997634;28;20407;-70
2021/10/03 06:05:47;;;;;;;2.23;2.00;;;16.70;99.90;;;;;;4997680;28;20431;-69
2021/10/03 06:08:15;;;;;;;2.33;1.83;;;16.80;99.90;;;;;;5010136;28;20428;-69
2021/10/03 06:10:41;;;;;;;1.83;1.50;;;16.80;99.90;;;;;;5012821;28;20196;-69
2021/10/03 06:13:07;;;;;;;2.10;1.57;;;16.90;99.90;;;;;;5018982;28;20428;-69
2021/10/03 06:15:34;;;;;;;1.70;1.60;;;16.90;99.90;;;;;;5015953;28;20408;-69
2021/10/03 06:18:00;;;;;;;1.40;1.30;;;17.00;99.90;;;;;;5016522;28;20527;-70
2021/10/03 06:20:26;;;;;;;1.83;1.73;;;17.10;99.90;;;;;;5015363;28;20410;-70
2021/10/03 06:22:53;;;;;;;3.27;1.57;;;17.20;99.90;;;;;;5010876;28;20412;-70
2021/10/03 06:25:18;;;;;;;1.70;1.60;;;17.30;99.90;;;;;;4997515;28;20399;-71
2021/10/03 06:27:44;;;;;;;2.03;1.93;;;17.40;99.90;;;;;;4996553;28;21012;-70
2021/10/03 06:30:10;;;;;;;1.80;1.70;;;17.50;99.70;;;;;;4979676;28;20752;-71
2021/10/03 06:32:36;;;;;;;2.10;1.67;;;17.60;99.70;;;;;;4997176;28;20242;-70
2021/10/03 06:35:03;;;;;;;1.70;1.60;;;17.70;99.50;;;;;;4996924;28;20405;-72
2021/10/03 06:37:29;;;;;;;1.40;1.30;;;17.90;99.20;;;;;;4979504;28;20417;-71
2021/10/03 06:39:55;;;;;;;2.03;1.60;;;17.90;99.00;;;;;;5015661;28;20990;-70
2021/10/03 06:42:20;;;;;;;1.50;1.40;;;18.00;98.80;;;;;;5014696;28;20174;-70
2021/10/03 06:44:46;;;;;;;1.50;1.40;;;18.20;98.90;;;;;;5016789;28;20766;-70
2021/10/03 06:47:12;;;;;;;3.07;1.70;;;18.30;98.60;;;;;;5016114;28;20173;-70
2021/10/03 06:49:42;;;;;;;1.43;1.33;;;18.50;98.30;;;;;;5016531;28;20237;-70
2021/10/03 06:52:14;;;;;;;5.37;2.17;;;18.80;97.80;;;;;;5001218;28;20203;-73
2021/10/03 06:54:40;;;;;;;2.03;1.93;;;19.00;98.10;;;;;;4996667;28;20737;-72
2021/10/03 06:57:06;;;;;;;1.80;1.70;;;19.30;97.60;;;;;;4995024;28;20396;-73
2021/10/03 06:59:35;;;;;;;2.03;1.67;;;19.40;97.00;;;;;;5014281;28;20728;-73
2021/10/03 07:02:05;;;;;;;1.60;1.50;;;19.50;96.90;;;;;;5011559;28;20427;-71
2021/10/03 07:04:31;;;;;;;1.57;1.47;;;19.70;96.80;;;;;;5031273;28;20412;-71
2021/10/03 07:07:00;;;;;;;2.07;1.97;;;19.80;96.70;;;;;;5004477;28;20422;-72
2021/10/03 07:09:26;;;;;;;1.67;1.57;;;20.00;96.60;;;;;;5012379;28;20437;-69
2021/10/03 07:11:52;;;;;;;1.80;1.70;;;20.10;96.20;;;;;;4978987;28;20407;-72
2021/10/03 07:14:18;;;;;;;1.70;1.60;;;20.20;96.00;;;;;;4996577;28;20407;-71
2021/10/03 07:16:45;;;;;;;1.90;1.70;;;20.30;96.00;;;;;;4996474;28;20530;-71
2021/10/03 07:19:11;;;;;;;1.90;1.80;;;20.50;94.80;;;;;;5019770;28;20198;-72
2021/10/03 07:21:37;;;;;;;1.93;1.77;;;20.70;94.20;;;;;;4999348;28;20405;-72
2021/10/03 07:24:03;;;;;;;2.00;1.77;;;20.80;93.80;;;;;;4988368;28;20186;-75
2021/10/03 07:26:32;;;;;;;1.63;1.53;;;20.90;93.60;;;;;;5013927;28;20186;-69
2021/10/03 07:28:57;;;;;;;1.80;1.70;;;20.90;93.30;;;;;;5014796;28;20404;-69
2021/10/03 07:31:23;;;;;;;1.37;1.27;;;21.00;93.00;;;;;;4997910;28;20397;-68
2021/10/03 07:33:49;;;;;;;1.23;1.23;;;21.00;93.60;;;;;;5012069;28;20608;-68
2021/10/03 07:36:19;;;;;;;2.30;2.10;;;20.90;94.60;;;;;;5014832;28;20183;-69
2021/10/03 07:38:46;;;;;;;2.07;1.87;;;20.90;94.50;;;;;;5013156;28;20190;-67
2021/10/03 07:41:11;;;;;;;2.00;1.90;;;20.90;93.50;;;;;;4995715;28;20530;-68
2021/10/03 07:43:57;;;;;;;3.43;1.97;;;20.80;93.70;;;;;;5010927;28;20461;-71
2021/10/03 07:46:23;;;;;;;2.03;1.83;;;20.70;94.10;;;;;;5014543;28;20527;-70
2021/10/03 07:48:49;;;;;;;2.00;1.23;;;20.60;94.90;;;;;;4997453;28;20448;-72
2021/10/03 07:51:15;;;;;;;1.80;1.40;;;20.60;95.60;;;;;;4998041;28;20665;-72
2021/10/03 07:53:41;;;;;;;2.20;1.30;;;20.50;94.90;;;;;;5002399;28;20554;-73
2021/10/03 07:56:07;;;;;;;1.90;1.77;;;20.50;94.80;;;;;;4996006;28;20476;-70
2021/10/03 07:58:33;;;;;;;2.13;1.93;;;20.40;94.90;;;;;;5014312;28;20426;-71
2021/10/03 08:00:58;;;;;;;2.20;2.00;;;20.40;95.20;;;;;;5004736;28;20168;-71
2021/10/03 08:03:24;;;;;;;1.60;1.33;;;20.40;95.30;;;;;;4995255;28;20175;-71
2021/10/03 08:05:50;;;;;;;5.90;5.30;;;20.50;95.40;;;;;;4995669;28;20190;-71
2021/10/03 08:08:16;;;;;;;3.10;2.90;;;20.50;95.40;;;;;;4994809;28;20535;-70
2021/10/03 08:10:42;;;;;;;3.20;2.87;;;20.50;95.80;;;;;;4994965;28;20670;-70
2021/10/03 08:13:10;;;;;;;2.07;1.93;;;20.60;96.70;;;;;;4994770;28;20461;-71
2021/10/03 08:15:36;;;;;;;2.00;1.90;;;20.60;96.80;;;;;;4994397;28;20407;-70
2021/10/03 08:18:04;;;;;;;5.93;2.37;;;20.60;96.40;;;;;;4992729;28;20437;-70
2021/10/03 08:20:29;;;;;;;3.57;2.20;;;20.50;94.80;;;;;;4997799;28;20198;-70
2021/10/03 08:22:55;;;;;;;2.30;2.10;;;20.50;95.10;;;;;;5012937;28;20747;-70
2021/10/03 08:25:21;;;;;;;3.07;2.23;;;20.50;95.30;;;;;;5012886;28;20175;-70
2021/10/03 08:27:47;;;;;;;3.17;1.90;;;20.50;95.70;;;;;;5012630;28;20175;-71
2021/10/03 08:30:13;;;;;;;1.67;1.57;;;20.60;95.60;;;;;;5011426;28;20223;-71
2021/10/03 08:32:40;;;;;;;1.80;1.70;;;20.60;95.40;;;;;;5012740;28;20453;-69
2021/10/03 08:35:07;;;;;;;1.23;1.13;;;20.50;94.90;;;;;;5007252;28;20419;-70
2021/10/03 08:37:33;;;;;;;1.73;1.60;;;20.50;94.80;;;;;;4994269;28;20782;-72
2021/10/03 08:40:10;;;;;;;1.47;1.37;;;20.50;94.70;;;;;;5066979;27;20534;-71
2021/10/03 08:42:36;;;;;;;1.47;1.37;;;20.50;94.40;;;;;;5067329;28;20406;-70
2021/10/03 08:45:02;;;;;;;1.40;1.30;;;20.50;94.60;;;;;;5067140;28;20470;-72
2021/10/03 08:47:28;;;;;;;2.67;1.67;;;20.50;94.80;;;;;;5066699;28;20403;-70
2021/10/03 08:49:54;;;;;;;1.33;1.23;;;20.50;95.00;;;;;;5066791;28;20427;-70
2021/10/03 08:52:25;;;;;;;1.80;1.70;;;20.60;95.00;;;;;;5066989;28;20931;-70
2021/10/03 08:54:51;;;;;;;2.30;1.90;;;20.70;94.90;;;;;;5067071;28;20170;-71
2021/10/03 08:57:16;;;;;;;1.73;1.63;;;20.80;94.90;;;;;;5065196;28;20964;-70
2021/10/03 09:00:04;;;;;;;12.37;4.77;;;20.80;94.80;;;;;;5066743;28;20434;-70
2021/10/03 09:02:54;;;;;;;4.03;3.20;;;21.00;94.90;;;;;;5065644;28;20178;-69
2021/10/03 09:05:20;;;;;;;4.10;2.80;;;21.10;95.40;;;;;;5073401;28;20391;-71
2021/10/03 09:08:04;;;;;;;2.13;1.60;;;21.10;95.80;;;;;;5064967;28;20804;-71
2021/10/03 09:10:45;;;;;;;1.60;1.20;;;21.20;97.00;;;;;;5066650;28;20420;-72
2021/10/03 09:13:11;;;;;;;1.50;1.40;;;21.30;96.80;;;;;;5066831;28;20396;-72
2021/10/03 09:15:37;;;;;;;1.77;1.67;;;21.30;95.40;;;;;;5066878;28;20749;-70
2021/10/03 09:18:05;;;;;;;1.70;1.60;;;21.30;95.90;;;;;;5064836;28;20196;-72
2021/10/03 09:20:31;;;;;;;1.40;1.30;;;21.30;96.10;;;;;;5066190;28;20434;-70
2021/10/03 09:23:17;;;;;;;1.30;1.20;;;21.20;95.20;;;;;;5066623;28;20937;-70
2021/10/03 09:25:47;;;;;;;3.23;2.10;;;21.20;95.40;;;;;;5066478;27;20701;-71
2021/10/03 09:28:24;;;;;;;1.53;1.43;;;21.30;95.80;;;;;;5066160;28;20408;-71
2021/10/03 09:31:08;;;;;;;1.60;1.50;;;21.30;96.00;;;;;;5066205;28;20506;-71
2021/10/03 09:33:52;;;;;;;1.80;1.70;;;21.30;95.90;;;;;;5065206;28;20411;-70
2021/10/03 09:36:20;;;;;;;3.60;1.40;;;21.30;95.50;;;;;;5066333;28;20841;-71
2021/10/03 09:38:55;;;;;;;1.53;1.40;;;21.30;95.30;;;;;;5064477;28;20825;-71
2021/10/03 09:41:24;;;;;;;2.17;1.97;;;21.30;95.40;;;;;;5066470;28;20395;-72
2021/10/03 09:44:02;;;;;;;3.03;2.23;;;21.20;95.60;;;;;;5066319;28;20872;-72
2021/10/03 09:46:37;;;;;;;1.77;1.67;;;21.20;95.40;;;;;;5064517;28;20390;-72
2021/10/03 09:49:06;;;;;;;1.73;1.20;;;21.10;95.00;;;;;;5066389;28;20780;-70
2021/10/03 09:51:33;;;;;;;1.80;1.70;;;21.20;94.90;;;;;;5051195;27;20411;-71
2021/10/03 09:53:59;;;;;;;2.90;1.60;;;21.10;94.60;;;;;;5052909;28;20375;-71
2021/10/03 09:56:26;;;;;;;1.70;1.60;;;21.10;94.90;;;;;;5052906;28;20400;-70
2021/10/03 09:58:54;;;;;;;1.53;1.30;;;21.10;94.90;;;;;;5052123;28;20464;-70
2021/10/03 10:01:22;;;;;;;1.50;1.40;;;21.10;95.00;;;;;;5052484;28;20408;-72
2021/10/03 10:03:48;;;;;;;1.70;1.60;;;21.20;95.20;;;;;;5052510;28;20892;-72
2021/10/03 10:06:15;;;;;;;1.20;1.10;;;21.20;95.80;;;;;;5052455;28;20477;-73
2021/10/03 10:08:44;;;;;;;2.97;1.80;;;21.20;95.60;;;;;;5050568;28;20416;-72
2021/10/03 10:11:21;;;;;;;1.63;1.53;;;21.20;95.70;;;;;;5052546;28;20430;-71
2021/10/03 10:13:55;;;;;;;1.50;1.40;;;21.20;95.80;;;;;;5051094;28;20469;-70
2021/10/03 10:16:44;;;;;;;1.37;1.27;;;21.20;95.90;;;;;;5052511;28;20797;-71
2021/10/03 10:19:42;;;;;;;1.73;1.53;;;21.20;96.00;;;;;;5052156;28;20468;-71
2021/10/03 10:22:14;;;;;;;1.37;1.27;;;21.20;96.00;;;;;;5051642;28;20396;-71
2021/10/03 10:24:54;;;;;;;1.93;1.83;;;21.20;96.10;;;;;;5052385;28;20702;-71
2021/10/03 10:27:29;;;;;;;1.50;1.30;;;21.30;96.40;;;;;;5050711;28;20754;-70
2021/10/03 10:30:04;;;;;;;1.10;1.03;;;21.30;96.30;;;;;;5050455;28;20484;-72
2021/10/03 10:32:33;;;;;;;1.83;1.67;;;21.40;95.80;;;;;;5051860;28;20397;-71
2021/10/03 10:35:07;;;;;;;1.60;1.50;;;21.50;95.60;;;;;;5052050;28;20421;-71
2021/10/03 10:37:52;;;;;;;1.40;1.30;;;21.70;95.60;;;;;;5050375;28;20729;-71
2021/10/03 10:40:24;;;;;;;1.47;1.37;;;21.80;94.80;;;;;;5051883;28;20492;-72
2021/10/03 10:42:57;;;;;;;1.63;1.50;;;21.90;94.80;;;;;;5052170;28;20392;-72
2021/10/03 10:45:29;;;;;;;1.73;1.20;;;22.00;94.60;;;;;;5051812;28;20412;-73
2021/10/03 10:48:10;;;;;;;2.10;1.77;;;22.10;94.30;;;;;;5051763;28;20383;-71
2021/10/03 10:50:41;;;;;;;1.80;1.60;;;22.10;94.40;;;;;;5050384;27;20439;-72
2021/10/03 10:53:27;;;;;;;1.83;1.60;;;22.10;94.60;;;;;;5051760;28;20407;-72
2021/10/03 10:56:02;;;;;;;2.17;1.93;;;22.10;94.60;;;;;;5050551;28;20405;-71
2021/10/03 10:58:30;;;;;;;1.37;1.37;;;22.20;94.60;;;;;;5051101;28;20500;-71
2021/10/03 11:00:59;;;;;;;1.60;1.50;;;22.20;94.40;;;;;;5051595;28;20416;-71
2021/10/03 11:03:43;;;;;;;1.83;1.73;;;22.30;94.30;;;;;;5051003;28;20405;-72
2021/10/03 11:06:13;;;;;;;1.60;1.50;;;22.40;94.20;;;;;;5051620;28;20851;-72
2021/10/03 11:09:00;;;;;;;2.07;1.80;;;22.40;94.10;;;;;;5050993;28;20388;-71
2021/10/03 11:11:48;;;;;;;2.17;1.40;;;22.40;94.30;;;;;;5050130;28;20416;-71
2021/10/03 11:14:20;;;;;;;2.70;1.53;;;22.50;94.30;;;;;;5051298;28;20404;-71
2021/10/03 11:16:47;;;;;;;2.67;2.10;;;22.50;94.30;;;;;;5050967;28;20432;-71
2021/10/03 11:19:43;;;;;;;2.60;1.30;;;22.50;94.40;;;;;;5051076;28;20441;-73
2021/10/03 11:22:18;;;;;;;1.90;1.80;;;22.50;94.40;;;;;;5049491;28;20400;-70
2021/10/03 11:24:50;;;;;;;1.70;1.60;;;22.40;94.40;;;;;;5051107;28;20461;-71
2021/10/03 11:27:21;;;;;;;1.57;1.47;;;22.40;94.60;;;;;;5050787;28;20402;-71
2021/10/03 11:29:54;;;;;;;1.70;1.60;;;22.30;94.70;;;;;;5050950;28;20436;-71
2021/10/03 11:32:23;;;;;;;1.60;1.50;;;22.30;94.70;;;;;;5051281;28;20735;-71
2021/10/03 11:34:52;;;;;;;2.10;1.50;;;22.30;94.80;;;;;;5051232;28;20386;-72
2021/10/03 11:37:55;;;;;;;2.20;1.83;;;22.30;94.80;;;;;;5050745;28;20393;-71
2021/10/03 11:40:27;;;;;;;1.83;1.73;;;22.20;95.00;;;;;;5050827;28;20814;-70
2021/10/03 11:42:59;;;;;;;2.00;1.80;;;22.20;95.00;;;;;;5050999;28;20418;-70
2021/10/03 11:45:27;;;;;;;1.60;1.50;;;22.20;94.80;;;;;;5050681;28;20379;-70
2021/10/03 11:47:55;;;;;;;2.30;1.77;;;22.20;95.00;;;;;;5050553;28;20404;-71
2021/10/03 11:50:48;;;;;;;1.73;1.63;;;22.20;95.10;;;;;;5050619;28;20926;-70
2021/10/03 11:53:28;;;;;;;8.37;4.97;;;22.30;95.10;;;;;;5050737;28;20371;-71
2021/10/03 11:56:13;;;;;;;3.37;2.23;;;22.30;95.00;;;;;;5049564;28;20462;-70
2021/10/03 11:58:41;;;;;;;2.50;2.30;;;22.40;94.80;;;;;;5049997;28;20492;-70
2021/10/03 12:01:07;;;;;;;1.73;1.60;;;22.40;94.80;;;;;;5050375;28;20398;-71
2021/10/03 12:03:45;;;;;;;1.93;1.70;;;22.40;94.60;;;;;;5050593;28;20774;-71
2021/10/03 12:06:22;;;;;;;2.50;2.17;;;22.20;95.10;;;;;;5050728;28;20490;-72
2021/10/03 12:08:48;;;;;;;1.83;1.70;;;22.20;95.40;;;;;;5050014;28;20429;-70
2021/10/03 12:11:15;;;;;;;3.07;2.17;;;22.10;95.40;;;;;;5050606;28;20407;-71
2021/10/03 12:13:58;;;;;;;2.10;1.90;;;22.00;95.90;;;;;;5049911;28;20390;-73
2021/10/03 12:16:24;;;;;;;3.17;2.13;;;21.90;95.60;;;;;;5050441;28;20379;-71
2021/10/03 12:18:59;;;;;;;1.93;1.83;;;21.80;95.50;;;;;;5049853;28;20422;-72
2021/10/03 12:21:25;;;;;;;2.27;2.07;;;21.80;95.60;;;;;;5050830;28;20199;-72
2021/10/03 12:23:58;;;;;;;1.97;1.77;;;21.80;95.80;;;;;;5050529;28;20404;-70
2021/10/03 12:26:39;;;;;;;2.00;1.63;;;21.80;95.80;;;;;;5050156;28;20173;-72
2021/10/03 12:29:04;;;;;;;1.73;1.63;;;21.90;95.80;;;;;;5030195;28;20552;-72
2021/10/03 12:32:14;;;;;;;1.70;1.60;;;22.00;95.90;;;;;;5030684;28;20497;-69
2021/10/03 12:34:52;;;;;;;2.70;1.87;;;22.10;95.70;;;;;;4989093;28;20180;-70
2021/10/03 12:37:20;;;;;;;2.00;1.83;;;22.10;95.80;;;;;;4988748;28;20400;-70
2021/10/03 12:39:52;;;;;;;2.57;1.70;;;22.10;95.80;;;;;;4988708;28;20841;-71
2021/10/03 12:42:21;;;;;;;2.97;2.77;;;22.10;96.00;;;;;;4999191;28;20430;-71
2021/10/03 12:44:48;;;;;;;1.80;1.70;;;22.10;96.10;;;;;;4991923;28;20513;-73
2021/10/03 12:47:15;;;;;;;1.80;1.70;;;22.10;96.10;;;;;;5008040;28;20422;-70
2021/10/03 12:49:42;;;;;;;1.70;1.60;;;22.10;96.30;;;;;;5008433;28;20430;-68
2021/10/03 12:52:09;;;;;;;2.30;2.10;;;22.20;96.20;;;;;;4991779;28;20967;-71
2021/10/03 12:54:35;;;;;;;2.13;2.03;;;22.30;96.30;;;;;;5008420;28;20784;-69
2021/10/03 12:57:03;;;;;;;1.90;1.80;;;22.40;96.70;;;;;;4991259;28;20421;-71